Time;durP1;ratioP1;P1;durP2;ratioP2;P2;SDS_P1;SDS_P2;PMS_P1;PMS_P2;Temp;Humidity;BMP_temperature;BMP_pressure;BME280_temperature;BME280_humidity;BME280_pressure;Samples;Min_cycle;Max_cycle;Signal;HPM_P1;HPM_P2
2023/04/19 00:00:48;;;;;;;10.23;6.80;;;;;;;18.20;46.41;102906.06;5083021;28;20040;-37
2023/04/19 00:03:16;;;;;;;10.45;7.05;;;;;;;18.20;46.45;102914.13;5084674;28;20405;-37
2023/04/19 00:05:43;;;;;;;12.35;7.75;;;;;;;18.19;46.13;102914.25;5080440;28;20040;-36
2023/04/19 00:08:10;;;;;;;10.52;7.28;;;;;;;18.18;46.00;102907.16;5083176;28;20052;-38
2023/04/19 00:10:38;;;;;;;11.80;7.63;;;;;;;18.18;46.09;102909.84;5078494;28;20040;-36
2023/04/19 00:13:05;;;;;;;11.05;7.25;;;;;;;18.17;46.05;102905.41;5081654;28;20079;-37
2023/04/19 00:15:33;;;;;;;11.48;6.63;;;;;;;18.18;45.93;102904.47;5080905;28;20070;-36
2023/04/19 00:18:00;;;;;;;10.60;6.75;;;;;;;18.16;46.32;102904.56;5082055;28;20126;-36
2023/04/19 00:20:27;;;;;;;11.10;6.88;;;;;;;18.15;46.29;102902.84;5086248;28;20059;-37
2023/04/19 00:22:53;;;;;;;9.55;6.22;;;;;;;18.15;45.97;102902.00;5083618;28;20051;-38
2023/04/19 00:25:20;;;;;;;9.57;6.20;;;;;;;18.14;46.27;102903.81;5081805;28;20054;-37
2023/04/19 00:27:46;;;;;;;10.48;6.85;;;;;;;18.15;45.94;102902.00;5083255;28;20062;-37
2023/04/19 00:30:13;;;;;;;10.07;5.90;;;;;;;18.13;45.90;102910.16;5083457;28;20424;-36
2023/04/19 00:32:39;;;;;;;10.43;6.43;;;;;;;18.12;46.35;102903.06;5086117;28;20056;-36
2023/04/19 00:35:06;;;;;;;9.88;6.60;;;;;;;18.11;46.59;102904.03;5083282;28;20050;-36
2023/04/19 00:37:33;;;;;;;10.15;6.45;;;;;;;18.11;46.33;102900.47;5083918;28;20092;-36
2023/04/19 00:40:00;;;;;;;9.82;6.20;;;;;;;18.10;45.99;102898.78;5083235;28;20135;-37
2023/04/19 00:42:26;;;;;;;9.18;5.90;;;;;;;18.10;46.15;102896.94;5085062;28;20152;-38
2023/04/19 00:44:53;;;;;;;11.60;6.32;;;;;;;18.09;46.27;102902.41;5081463;28;20047;-37
2023/04/19 00:47:19;;;;;;;8.38;5.75;;;;;;;18.09;46.25;102903.28;5079061;28;20131;-37
2023/04/19 00:49:46;;;;;;;13.57;6.30;;;;;;;18.08;46.31;102895.31;5081719;28;20059;-37
2023/04/19 00:52:13;;;;;;;10.38;6.38;;;;;;;18.08;46.35;102895.31;5083234;28;20511;-37
2023/04/19 00:54:42;;;;;;;9.35;5.35;;;;;;;18.07;46.28;102894.47;5079249;28;20052;-37
2023/04/19 00:57:08;;;;;;;8.38;5.50;;;;;;;18.06;46.47;102898.13;5081521;28;20338;-37
2023/04/19 00:59:35;;;;;;;9.15;5.97;;;;;;;18.07;46.18;102898.97;5081131;28;20055;-37
2023/04/19 01:02:02;;;;;;;15.73;5.90;;;;;;;18.06;46.13;102894.56;5080185;28;20447;-37
2023/04/19 01:04:29;;;;;;;8.43;5.72;;;;;;;18.05;46.08;102893.72;5080727;28;20060;-37
2023/04/19 01:06:56;;;;;;;7.50;4.93;;;;;;;18.05;46.53;102895.50;5079663;28;20076;-37
2023/04/19 01:09:22;;;;;;;8.68;5.70;;;;;;;18.03;46.41;102892.94;5081550;28;20071;-38
2023/04/19 01:11:49;;;;;;;10.50;5.85;;;;;;;18.02;46.32;102885.88;5081756;28;20043;-37
2023/04/19 01:14:16;;;;;;;7.93;5.32;;;;;;;18.02;46.34;102891.25;5081844;28;20320;-38
2023/04/19 01:16:44;;;;;;;7.88;5.45;;;;;;;18.00;46.41;102891.31;5084401;28;20050;-37
2023/04/19 01:19:11;;;;;;;8.70;5.85;;;;;;;18.00;46.31;102887.78;5080571;28;20074;-37
2023/04/19 01:21:38;;;;;;;9.52;5.90;;;;;;;17.99;46.56;102886.06;5082267;28;20419;-37
2023/04/19 01:24:05;;;;;;;6.20;4.70;;;;;;;17.98;46.58;102885.22;5082113;28;20066;-37
2023/04/19 01:26:32;;;;;;;7.80;5.28;;;;;;;17.98;45.99;102885.22;5082061;28;20055;-37
2023/04/19 01:28:59;;;;;;;7.10;5.20;;;;;;;17.97;46.48;102886.19;5083116;28;20051;-37
2023/04/19 01:31:25;;;;;;;8.60;5.93;;;;;;;17.96;46.14;102881.75;5081844;28;20131;-39
2023/04/19 01:33:52;;;;;;;7.35;5.03;;;;;;;17.95;46.29;102890.78;5082750;28;20048;-37
2023/04/19 01:36:18;;;;;;;6.93;4.78;;;;;;;17.94;46.19;102883.69;5080486;28;20511;-38
2023/04/19 01:38:46;;;;;;;8.32;5.50;;;;;;;17.94;46.10;102882.84;5083962;28;20266;-37
2023/04/19 01:41:13;;;;;;;7.18;5.10;;;;;;;17.92;46.43;102880.25;5078781;28;20050;-37
2023/04/19 01:43:39;;;;;;;7.50;5.15;;;;;;;17.92;46.11;102882.94;5080629;28;20325;-37
2023/04/19 01:46:06;;;;;;;6.65;4.43;;;;;;;17.91;46.23;102880.38;5080572;28;20055;-37
2023/04/19 01:48:32;;;;;;;7.82;4.75;;;;;;;17.95;46.25;102874.69;5080020;28;20084;-38
2023/04/19 01:50:59;;;;;;;7.88;5.07;;;;;;;18.02;46.15;102876.97;5080211;28;20058;-37
2023/04/19 01:53:26;;;;;;;7.30;5.15;;;;;;;18.10;46.43;102877.31;5081159;28;20047;-39
2023/04/19 01:55:52;;;;;;;7.40;4.70;;;;;;;18.17;46.03;102871.41;5081095;28;20048;-37
2023/04/19 01:58:19;;;;;;;8.18;5.20;;;;;;;18.25;45.96;102870.84;5079443;28;20079;-37
2023/04/19 02:00:45;;;;;;;7.78;5.32;;;;;;;18.34;45.33;102875.63;5079714;28;20440;-36
2023/04/19 02:03:12;;;;;;;7.65;4.82;;;;;;;18.40;45.53;102880.53;5081980;28;20135;-37
2023/04/19 02:05:39;;;;;;;7.70;4.80;;;;;;;18.44;45.64;102881.19;5082030;28;20123;-37
2023/04/19 02:08:06;;;;;;;6.75;4.72;;;;;;;18.47;45.33;102873.78;5078949;28;20051;-37
2023/04/19 02:10:32;;;;;;;7.25;5.20;;;;;;;18.51;45.44;102874.44;5079516;28;20335;-37
2023/04/19 02:12:59;;;;;;;7.03;4.80;;;;;;;18.54;45.28;102871.53;5080227;28;20044;-37
2023/04/19 02:15:25;;;;;;;6.95;4.68;;;;;;;18.55;45.06;102878.63;5080563;28;20328;-37
2023/04/19 02:17:52;;;;;;;6.38;4.60;;;;;;;18.57;45.18;102871.31;5081620;28;20368;-37
2023/04/19 02:20:19;;;;;;;6.63;4.28;;;;;;;18.58;45.23;102875.72;5081732;28;20048;-37
2023/04/19 02:22:46;;;;;;;7.15;4.60;;;;;;;18.60;45.07;102872.94;5081766;28;20408;-37
2023/04/19 02:25:13;;;;;;;6.65;4.43;;;;;;;18.62;44.89;102874.56;5082353;28;20044;-36
2023/04/19 02:27:41;;;;;;;6.18;4.38;;;;;;;18.63;44.94;102872.72;5077602;28;20465;-36
2023/04/19 02:30:08;;;;;;;6.70;4.55;;;;;;;18.62;44.92;102871.88;5080488;28;20151;-37
2023/04/19 02:32:35;;;;;;;6.80;4.85;;;;;;;18.62;45.12;102871.88;5082914;28;20420;-36
2023/04/19 02:35:01;;;;;;;6.55;4.55;;;;;;;18.63;44.84;102881.63;5080847;28;20052;-36
2023/04/19 02:37:28;;;;;;;6.95;4.45;;;;;;;18.64;45.00;102871.75;5075453;28;20048;-38
2023/04/19 02:39:54;;;;;;;6.43;4.35;;;;;;;18.65;45.12;102868.97;5083290;28;20044;-36
2023/04/19 02:42:21;;;;;;;7.05;4.82;;;;;;;18.64;44.93;102877.97;5080797;28;20056;-37
2023/04/19 02:44:47;;;;;;;5.97;4.40;;;;;;;18.63;44.95;102870.88;5079521;28;20048;-38
2023/04/19 02:47:14;;;;;;;6.53;4.30;;;;;;;18.61;44.83;102875.50;5083383;28;20048;-36
2023/04/19 02:49:41;;;;;;;6.70;4.82;;;;;;;18.59;45.17;102882.81;5080115;28;20044;-38
2023/04/19 02:52:08;;;;;;;6.13;4.22;;;;;;;18.57;45.27;102882.03;5075613;28;20060;-36
2023/04/19 02:54:34;;;;;;;5.75;4.13;;;;;;;18.54;45.21;102882.28;5079910;28;20067;-37
2023/04/19 02:57:01;;;;;;;6.60;4.68;;;;;;;18.52;45.29;102881.53;5084498;28;20054;-36
2023/04/19 02:59:28;;;;;;;5.75;3.78;;;;;;;18.47;44.98;102881.00;5088072;28;20055;-37
2023/04/19 03:01:54;;;;;;;6.47;4.32;;;;;;;18.42;44.55;102886.69;5084161;28;20070;-36
2023/04/19 03:04:21;;;;;;;5.40;4.10;;;;;;;18.36;45.49;102889.78;5085559;28;20063;-35
2023/04/19 03:06:48;;;;;;;4.40;3.63;;;;;;;18.31;45.45;102886.56;5083920;28;20055;-36
2023/04/19 03:09:14;;;;;;;6.18;4.47;;;;;;;18.25;45.17;102879.81;5085295;28;20086;-37
2023/04/19 03:11:41;;;;;;;6.57;4.53;;;;;;;18.22;45.50;102881.84;5081754;28;20058;-36
2023/04/19 03:14:08;;;;;;;5.20;3.90;;;;;;;18.16;45.83;102875.03;5084092;28;20048;-37
2023/04/19 03:16:35;;;;;;;6.70;4.70;;;;;;;18.11;46.07;102870.97;5085392;28;20050;-36
2023/04/19 03:19:02;;;;;;;6.65;4.25;;;;;;;18.06;46.01;102876.66;5085292;28;20106;-37
2023/04/19 03:21:28;;;;;;;5.20;4.00;;;;;;;18.03;45.97;102876.00;5087098;28;20136;-37
2023/04/19 03:23:55;;;;;;;5.78;3.90;;;;;;;17.98;45.93;102874.47;5086679;28;20209;-36
2023/04/19 03:26:21;;;;;;;5.75;3.90;;;;;;;17.94;46.19;102870.28;5084963;28;20351;-35
2023/04/19 03:28:48;;;;;;;5.35;3.72;;;;;;;17.91;46.28;102870.47;5084342;28;20052;-36
2023/04/19 03:31:15;;;;;;;5.97;3.92;;;;;;;17.89;46.05;102869.75;5083113;28;20044;-36
2023/04/19 03:33:41;;;;;;;5.75;3.80;;;;;;;17.88;46.01;102872.50;5083273;28;20094;-37
2023/04/19 03:36:08;;;;;;;5.13;3.88;;;;;;;17.86;46.66;102864.56;5083315;28;20462;-39
2023/04/19 03:38:36;;;;;;;6.40;3.95;;;;;;;17.84;46.42;102868.31;5084781;28;20051;-36
2023/04/19 03:41:02;;;;;;;5.28;3.60;;;;;;;17.84;46.24;102860.28;5084837;28;20332;-35
2023/04/19 03:43:29;;;;;;;6.72;4.10;;;;;;;17.84;46.62;102868.31;5083530;28;20383;-36
2023/04/19 03:45:55;;;;;;;6.72;4.45;;;;;;;17.83;46.52;102858.56;5085066;28;20131;-36
2023/04/19 03:48:22;;;;;;;4.60;3.55;;;;;;;17.83;46.33;102863.91;5082617;28;20102;-36
2023/04/19 03:50:48;;;;;;;4.65;3.22;;;;;;;17.85;46.47;102867.34;5082785;28;20048;-36
2023/04/19 03:53:17;;;;;;;5.57;3.70;;;;;;;17.85;46.04;102864.66;5083529;28;20043;-36
2023/04/19 03:55:44;;;;;;;5.82;3.85;;;;;;;17.86;46.65;102874.47;5081676;28;21187;-36
2023/04/19 03:58:11;;;;;;;6.05;3.58;;;;;;;17.88;46.40;102867.16;5082500;28;20071;-36
2023/04/19 04:00:37;;;;;;;7.75;3.97;;;;;;;17.89;46.06;102871.53;5079391;28;20044;-37
2023/04/19 04:03:04;;;;;;;5.43;3.92;;;;;;;17.89;45.93;102869.75;5085069;28;20062;-36
2023/04/19 04:05:31;;;;;;;6.68;4.05;;;;;;;17.88;46.33;102873.38;5080602;28;20056;-36
2023/04/19 04:07:57;;;;;;;5.63;3.95;;;;;;;17.88;46.45;102873.38;5082717;28;20044;-36
2023/04/19 04:10:24;;;;;;;5.78;3.55;;;;;;;17.90;45.91;102878.66;5082588;28;20364;-36
2023/04/19 04:12:50;;;;;;;5.45;3.42;;;;;;;17.89;46.20;102868.84;5077640;28;20052;-36
2023/04/19 04:15:17;;;;;;;5.28;3.80;;;;;;;17.89;46.23;102880.47;5083383;28;20066;-36
2023/04/19 04:17:44;;;;;;;4.63;3.17;;;;;;;17.88;46.58;102872.50;5076541;28;20053;-36
2023/04/19 04:20:12;;;;;;;6.22;3.95;;;;;;;17.88;46.47;102873.38;5081410;28;20374;-35
2023/04/19 04:22:42;;;;;;;4.93;3.92;;;;;;;17.88;46.38;102872.50;5078972;28;20052;-36
2023/04/19 04:25:09;;;;;;;5.72;4.07;;;;;;;17.87;46.11;102877.03;5081204;28;20623;-36
2023/04/19 04:27:36;;;;;;;6.07;3.90;;;;;;;17.87;46.35;102876.16;5079044;28;20564;-36
2023/04/19 04:30:03;;;;;;;4.85;3.53;;;;;;;17.87;46.08;102870.81;5084600;28;20397;-37
2023/04/19 04:32:34;;;;;;;5.68;3.95;;;;;;;17.86;46.15;102872.63;5080956;28;20082;-38
2023/04/19 04:35:02;;;;;;;5.75;3.67;;;;;;;17.83;46.02;102872.81;5082458;28;20130;-38
2023/04/19 04:37:32;;;;;;;5.35;3.30;;;;;;;17.83;46.35;102869.28;5080865;28;20524;-35
2023/04/19 04:40:00;;;;;;;5.50;4.00;;;;;;;17.80;46.01;102875.72;5079567;28;20175;-35
2023/04/19 04:42:30;;;;;;;5.70;3.00;;;;;;;17.83;46.19;102880.00;5083613;28;20093;-35
2023/04/19 04:44:56;;;;;;;5.55;3.50;;;;;;;17.90;46.03;102875.97;5084358;28;20523;-37
2023/04/19 04:47:23;;;;;;;4.88;3.45;;;;;;;18.00;46.09;102874.38;5087015;28;20122;-37
2023/04/19 04:49:51;;;;;;;4.97;3.53;;;;;;;18.09;45.55;102875.56;5086780;28;20516;-39
2023/04/19 04:52:18;;;;;;;7.35;3.55;;;;;;;18.17;45.46;102868.72;5088341;28;20383;-37
2023/04/19 04:54:44;;;;;;;4.65;3.53;;;;;;;18.26;45.80;102872.59;5084910;28;20115;-40
2023/04/19 04:57:11;;;;;;;6.07;3.38;;;;;;;18.32;45.70;102874.00;5082234;28;20062;-38
2023/04/19 04:59:37;;;;;;;4.78;3.63;;;;;;;18.38;45.18;102871.75;5087932;28;20055;-39
2023/04/19 05:02:04;;;;;;;7.32;3.90;;;;;;;18.42;45.43;102869.72;5083080;28;20423;-37
2023/04/19 05:04:30;;;;;;;5.43;3.67;;;;;;;18.46;45.19;102869.38;5082095;28;20234;-37
2023/04/19 05:06:57;;;;;;;5.38;3.55;;;;;;;18.49;44.90;102879.03;5086264;28;20104;-38
2023/04/19 05:09:24;;;;;;;5.47;4.00;;;;;;;18.52;45.06;102878.84;5083308;28;20063;-42
2023/04/19 05:11:50;;;;;;;5.00;3.60;;;;;;;18.55;45.17;102867.03;5084659;28;20522;-37
2023/04/19 05:14:17;;;;;;;7.28;3.80;;;;;;;18.57;44.76;102878.50;5079562;28;20428;-38
2023/04/19 05:16:43;;;;;;;4.40;3.28;;;;;;;18.59;44.96;102872.06;5079439;28;20045;-38
2023/04/19 05:19:10;;;;;;;5.35;3.88;;;;;;;18.63;44.77;102875.41;5077519;28;20348;-39
2023/04/19 05:21:37;;;;;;;5.43;3.78;;;;;;;18.66;44.83;102880.56;5082183;28;20040;-38
2023/04/19 05:24:04;;;;;;;5.15;3.38;;;;;;;18.67;44.70;102877.75;5080311;28;20040;-36
2023/04/19 05:26:31;;;;;;;5.47;3.83;;;;;;;18.70;44.69;102882.97;5080667;28;20080;-36
2023/04/19 05:28:57;;;;;;;4.90;3.60;;;;;;;18.72;44.40;102883.69;5096954;28;20147;-36
2023/04/19 05:31:24;;;;;;;5.35;3.17;;;;;;;18.73;44.47;102893.50;5082604;28;20503;-36
2023/04/19 05:33:51;;;;;;;6.97;3.90;;;;;;;18.76;44.69;102896.91;5081777;28;20385;-36
2023/04/19 05:36:17;;;;;;;5.97;3.58;;;;;;;18.77;44.77;102890.56;5080259;28;20439;-37
2023/04/19 05:38:44;;;;;;;5.28;3.83;;;;;;;18.78;44.87;102895.84;5083859;28;20052;-37
2023/04/19 05:41:11;;;;;;;4.85;3.28;;;;;;;18.80;44.62;102896.59;5081285;28;20040;-36
2023/04/19 05:43:37;;;;;;;5.00;3.80;;;;;;;18.81;44.99;102895.59;5075240;28;20515;-36
2023/04/19 05:46:04;;;;;;;5.25;3.75;;;;;;;18.81;44.78;102890.25;5082186;28;20113;-38
2023/04/19 05:48:30;;;;;;;5.15;3.67;;;;;;;18.81;44.41;102887.56;5086899;28;20048;-37
2023/04/19 05:50:58;;;;;;;5.53;3.92;;;;;;;18.82;44.51;102891.13;5080791;28;21136;-37
2023/04/19 05:53:24;;;;;;;5.63;3.75;;;;;;;18.82;44.84;102885.75;5083273;28;20048;-38
2023/04/19 05:55:51;;;;;;;5.82;3.60;;;;;;;18.84;44.60;102881.13;5077127;28;20090;-36
2023/04/19 05:58:18;;;;;;;5.80;3.90;;;;;;;18.84;44.44;102878.44;5078965;28;20343;-37
2023/04/19 06:00:45;;;;;;;7.32;4.07;;;;;;;18.85;44.22;102883.69;5077641;28;20066;-36
2023/04/19 06:03:12;;;;;;;5.15;3.65;;;;;;;18.88;43.68;102882.63;5082210;28;20057;-38
2023/04/19 06:05:39;;;;;;;5.13;3.60;;;;;;;18.88;43.85;102886.16;5082671;28;20067;-41
2023/04/19 06:08:08;;;;;;;6.45;3.97;;;;;;;18.91;43.86;102885.09;5081172;28;20424;-38
2023/04/19 06:10:36;;;;;;;6.13;3.35;;;;;;;18.90;44.14;102883.38;5082260;28;20383;-36
2023/04/19 06:13:21;;;;;;;4.95;3.38;;;;;;;18.90;44.21;102888.75;5077633;28;20060;-36
2023/04/19 06:15:48;;;;;;;5.43;3.70;;;;;;;18.87;44.38;102884.44;5080418;28;20044;-40
2023/04/19 06:18:15;;;;;;;5.72;4.00;;;;;;;18.86;44.39;102881.88;5081771;28;20049;-37
2023/04/19 06:20:45;;;;;;;5.55;3.83;;;;;;;18.86;44.31;102882.72;5075294;28;20608;-40
2023/04/19 06:23:13;;;;;;;4.95;3.42;;;;;;;18.87;44.29;102889.81;5080957;28;20046;-38
2023/04/19 06:25:41;;;;;;;5.68;4.22;;;;;;;18.89;44.54;102881.63;5080513;28;20427;-38
2023/04/19 06:28:07;;;;;;;5.35;3.90;;;;;;;18.90;44.68;102888.75;5077551;28;20132;-40
2023/04/19 06:30:34;;;;;;;6.05;4.00;;;;;;;18.93;44.00;102886.69;5083967;28;20503;-37
2023/04/19 06:33:01;;;;;;;5.15;3.95;;;;;;;18.94;44.79;102887.56;5083442;28;20135;-39
2023/04/19 06:35:27;;;;;;;7.00;4.13;;;;;;;18.96;44.88;102886.47;5087768;28;20094;-37
2023/04/19 06:37:54;;;;;;;5.47;3.72;;;;;;;18.98;44.58;102892.59;5087954;28;20052;-37
2023/04/19 06:40:20;;;;;;;5.80;3.85;;;;;;;19.01;44.35;102882.59;5086754;28;20052;-38
2023/04/19 06:42:47;;;;;;;5.88;3.83;;;;;;;19.02;44.10;102885.19;5084422;28;20044;-37
2023/04/19 06:45:14;;;;;;;7.72;4.25;;;;;;;19.04;44.04;102885.91;5081412;28;20087;-37
2023/04/19 06:47:41;;;;;;;6.00;3.83;;;;;;;19.05;44.32;102879.56;5082674;28;20079;-40
2023/04/19 06:50:09;;;;;;;4.97;4.05;;;;;;;19.07;44.00;102884.84;5087621;28;20161;-39
2023/04/19 06:52:37;;;;;;;5.35;3.80;;;;;;;19.09;44.00;102885.56;5080301;28;20044;-40
2023/04/19 06:55:08;;;;;;;5.63;3.75;;;;;;;19.09;44.00;102891.81;5084436;28;20385;-36
2023/04/19 06:57:35;;;;;;;6.50;4.30;;;;;;;19.11;44.22;102891.72;5084862;28;20048;-37
2023/04/19 07:00:03;;;;;;;6.32;4.13;;;;;;;19.11;43.62;102887.19;5081198;28;20442;-37
2023/04/19 07:02:29;;;;;;;7.10;4.50;;;;;;;19.13;43.27;102895.13;5079429;28;20062;-38
2023/04/19 07:04:56;;;;;;;6.30;4.07;;;;;;;19.12;42.97;102894.28;5080622;28;20433;-37
2023/04/19 07:07:22;;;;;;;5.45;3.58;;;;;;;19.13;43.14;102893.31;5083050;28;20048;-36
2023/04/19 07:09:49;;;;;;;7.05;4.22;;;;;;;19.13;42.35;102887.06;5082773;28;20052;-38
2023/04/19 07:12:16;;;;;;;6.82;3.63;;;;;;;19.13;42.17;102896.00;5083508;28;20040;-37
2023/04/19 07:14:42;;;;;;;5.25;3.45;;;;;;;19.14;42.72;102894.19;5080208;28;20052;-41
2023/04/19 07:17:09;;;;;;;6.30;3.65;;;;;;;19.14;42.33;102899.56;5081643;28;20044;-38
2023/04/19 07:19:35;;;;;;;5.95;3.80;;;;;;;19.12;42.29;102894.28;5079201;28;20059;-38
2023/04/19 07:22:02;;;;;;;5.75;3.42;;;;;;;19.11;41.69;102889.88;5085069;28;20328;-42
2023/04/19 07:24:29;;;;;;;6.20;3.83;;;;;;;19.11;42.12;102887.19;5087716;28;20052;-37
2023/04/19 07:26:56;;;;;;;6.68;4.45;;;;;;;19.12;42.23;102877.31;5082389;28;20048;-37
2023/04/19 07:29:22;;;;;;;4.25;3.20;;;;;;;19.12;41.55;102886.22;5087708;28;20313;-37
2023/04/19 07:31:49;;;;;;;6.35;3.83;;;;;;;19.12;41.79;102891.59;5084158;28;20117;-41
2023/04/19 07:34:16;;;;;;;6.88;3.58;;;;;;;19.12;41.76;102893.44;5081055;28;20140;-38
2023/04/19 07:36:43;;;;;;;6.18;3.38;;;;;;;19.11;41.92;102880.97;5085193;28;20516;-39
2023/04/19 07:39:10;;;;;;;4.88;3.47;;;;;;;19.10;41.95;102887.31;5083147;28;20044;-37
2023/04/19 07:41:36;;;;;;;6.32;4.00;;;;;;;19.09;41.76;102882.88;5091283;28;20481;-40
2023/04/19 07:44:03;;;;;;;3.53;2.92;;;;;;;19.08;41.46;102887.41;5082666;28;20419;-37
2023/04/19 07:46:30;;;;;;;5.45;3.58;;;;;;;19.07;41.79;102890.22;5088693;28;20483;-38
2023/04/19 07:48:56;;;;;;;5.88;3.25;;;;;;;19.04;41.94;102888.59;5086220;28;20637;-37
2023/04/19 07:51:24;;;;;;;5.38;3.15;;;;;;;19.02;41.63;102887.88;5084339;28;20054;-39
2023/04/19 07:53:50;;;;;;;3.65;2.85;;;;;;;19.02;41.48;102887.00;5087228;28;20063;-38
2023/04/19 07:56:18;;;;;;;4.60;3.30;;;;;;;19.02;41.43;102884.31;5083735;28;20432;-39
2023/04/19 07:58:45;;;;;;;4.15;3.00;;;;;;;19.02;41.56;102881.63;5086576;28;20088;-38
2023/04/19 08:01:22;;;;;;;4.82;3.35;;;;;;;19.02;41.79;102882.50;5079841;28;20134;-38
2023/04/19 08:03:49;;;;;;;5.80;2.95;;;;;;;18.99;41.77;102880.88;5081412;28;20427;-39
2023/04/19 08:06:16;;;;;;;4.35;3.17;;;;;;;18.98;41.31;102881.84;5080929;28;20056;-37
2023/04/19 08:08:43;;;;;;;6.15;3.45;;;;;;;18.98;41.49;102878.31;5095505;28;20048;-37
2023/04/19 08:11:10;;;;;;;8.80;3.50;;;;;;;18.98;41.79;102881.00;5091119;28;20048;-36
2023/04/19 08:13:36;;;;;;;5.20;3.20;;;;;;;18.97;41.88;102881.94;5075987;28;20089;-36
2023/04/19 08:16:05;;;;;;;4.97;2.97;;;;;;;18.96;42.14;102883.78;5079199;28;20044;-36
2023/04/19 08:18:35;;;;;;;5.63;2.60;;;;;;;18.97;42.04;102882.81;5080999;28;20053;-36
2023/04/19 08:21:02;;;;;;;4.03;2.70;;;;;;;18.98;41.97;102881.00;5077092;28;20348;-37
2023/04/19 08:23:28;;;;;;;6.78;3.00;;;;;;;18.97;41.81;102882.81;5081747;28;20040;-36
2023/04/19 08:26:13;;;;;;;5.95;2.67;;;;;;;18.99;41.98;102886.25;5083691;28;20056;-36
2023/04/19 08:28:39;;;;;;;4.50;3.05;;;;;;;18.98;42.11;102873.78;5082829;28;20106;-37
2023/04/19 08:31:06;;;;;;;5.05;2.88;;;;;;;18.99;41.87;102871.97;5079076;28;20052;-37
2023/04/19 08:33:33;;;;;;;5.05;2.47;;;;;;;19.02;42.00;102882.50;5080706;28;20359;-37
2023/04/19 08:35:59;;;;;;;4.18;2.80;;;;;;;19.02;41.69;102877.13;5082972;28;20491;-38
2023/04/19 08:38:26;;;;;;;4.75;2.63;;;;;;;19.04;41.88;102879.69;5086816;28;20048;-37
2023/04/19 08:40:56;;;;;;;6.43;2.88;;;;;;;19.07;41.57;102879.47;5082418;28;20405;-36
2023/04/19 08:43:24;;;;;;;5.03;2.88;;;;;;;19.09;41.43;102864.94;5084721;28;20051;-37
2023/04/19 08:45:52;;;;;;;7.82;3.28;;;;;;;19.11;41.61;102865.69;5081418;28;20044;-37
2023/04/19 08:48:20;;;;;;;4.45;2.92;;;;;;;19.14;41.39;102870.84;5082807;28;20049;-40
2023/04/19 08:50:48;;;;;;;5.45;3.00;;;;;;;19.17;41.00;102880.50;5082053;28;20052;-39
2023/04/19 08:53:34;;;;;;;5.70;2.83;;;;;;;19.19;40.77;102866.00;5081926;28;20071;-37
2023/04/19 08:56:02;;;;;;;4.70;2.97;;;;;;;19.20;40.24;102865.00;5081442;28;20343;-36
2023/04/19 08:58:32;;;;;;;5.15;2.78;;;;;;;19.23;40.88;102861.25;5085259;28;20053;-37
2023/04/19 09:01:19;;;;;;;5.40;2.70;;;;;;;19.27;41.14;102864.59;5085963;28;20410;-38
2023/04/19 09:04:06;;;;;;;3.17;2.33;;;;;;;19.29;40.99;102863.47;5081453;28;20052;-36
2023/04/19 09:06:54;;;;;;;7.78;2.65;;;;;;;19.32;41.13;102857.88;5082900;28;20090;-37
2023/04/19 09:09:23;;;;;;;5.05;2.80;;;;;;;19.34;41.70;102860.47;5081422;28;20067;-36
2023/04/19 09:12:02;;;;;;;5.50;3.03;;;;;;;19.37;42.06;102873.66;5079622;28;20045;-37
2023/04/19 09:14:29;;;;;;;4.40;2.78;;;;;;;19.39;41.82;102867.22;5083583;28;20097;-37
2023/04/19 09:17:13;;;;;;;4.43;2.20;;;;;;;19.44;41.73;102885.69;5082412;28;20058;-38
2023/04/19 09:19:46;;;;;;;3.83;2.75;;;;;;;19.45;42.39;102866.75;5083972;28;20101;-37
2023/04/19 09:22:13;;;;;;;2.97;2.25;;;;;;;19.49;42.58;102859.31;5083635;28;20036;-37
2023/04/19 09:24:40;;;;;;;3.38;2.10;;;;;;;19.53;41.97;102855.41;5082767;28;20086;-39
2023/04/19 09:27:11;;;;;;;3.08;2.10;;;;;;;19.55;42.23;102861.56;5079069;28;20049;-38
2023/04/19 09:29:37;;;;;;;3.70;2.47;;;;;;;19.60;41.83;102861.22;5084604;28;20040;-37
2023/04/19 09:32:04;;;;;;;2.28;2.03;;;;;;;19.62;41.85;102856.63;5085034;28;20044;-38
2023/04/19 09:34:31;;;;;;;5.95;2.88;;;;;;;19.67;42.30;102859.81;5085423;28;20094;-37
2023/04/19 09:37:11;;;;;;;5.15;2.20;;;;;;;19.71;41.78;102854.09;5083087;28;20055;-38
2023/04/19 09:39:58;;;;;;;2.63;2.08;;;;;;;19.79;41.92;102856.19;5078844;28;20051;-39
2023/04/19 09:42:43;;;;;;;2.67;2.10;;;;;;;19.84;42.34;102853.16;5082869;28;20166;-38
2023/04/19 09:45:43;;;;;;;4.10;2.40;;;;;;;19.91;42.38;102846.34;5080565;28;20059;-37
2023/04/19 09:48:11;;;;;;;3.63;2.22;;;;;;;19.98;42.09;102855.66;5097077;28;20451;-38
2023/04/19 09:50:52;;;;;;;5.28;2.40;;;;;;;20.03;41.74;102847.22;5080454;28;20055;-38
2023/04/19 09:53:32;;;;;;;3.60;2.25;;;;;;;20.10;41.47;102852.03;5082920;28;20052;-37
2023/04/19 09:56:00;;;;;;;3.05;2.17;;;;;;;20.15;41.46;102852.53;5078649;28;20045;-37
2023/04/19 09:58:29;;;;;;;4.32;2.60;;;;;;;20.20;41.47;102842.25;5077804;28;20087;-37
2023/04/19 10:01:17;;;;;;;3.30;2.08;;;;;;;20.26;41.37;102854.41;5077424;28;20048;-38
2023/04/19 10:03:47;;;;;;;3.33;1.90;;;;;;;20.32;41.60;102853.06;5080077;28;20143;-38
2023/04/19 10:06:16;;;;;;;2.85;1.75;;;;;;;20.37;41.71;102859.78;5077416;28;20491;-37
2023/04/19 10:09:04;;;;;;;4.72;2.20;;;;;;;20.42;41.02;102863.00;5084404;28;20048;-40
2023/04/19 10:11:37;;;;;;;3.03;2.08;;;;;;;20.48;41.29;102850.00;5081167;28;20048;-38
2023/04/19 10:14:07;;;;;;;3.08;2.00;;;;;;;20.53;40.93;102855.91;5083589;28;20048;-37
2023/04/19 10:16:35;;;;;;;3.13;2.10;;;;;;;20.58;41.52;102861.78;5080062;28;20340;-38
2023/04/19 10:19:08;;;;;;;4.28;2.00;;;;;;;20.62;41.12;102847.97;5082626;28;20051;-37
2023/04/19 10:21:37;;;;;;;2.78;1.88;;;;;;;20.67;40.86;102842.22;5081960;28;20401;-37
2023/04/19 10:24:04;;;;;;;3.10;2.20;;;;;;;20.71;40.80;102841.00;5083720;28;20051;-38
2023/04/19 10:27:12;;;;;;;3.30;1.70;;;;;;;20.75;41.43;102844.31;5081961;28;20186;-38
2023/04/19 10:30:09;;;;;;;3.17;1.85;;;;;;;20.80;41.19;102839.41;5084567;28;20174;-39
2023/04/19 10:32:41;;;;;;;2.65;1.70;;;;;;;20.85;41.35;102834.47;5080690;28;20048;-38
2023/04/19 10:35:09;;;;;;;2.95;2.08;;;;;;;20.88;40.92;102836.94;5083054;28;20117;-40
2023/04/19 10:37:40;;;;;;;2.28;1.75;;;;;;;20.92;40.93;102833.00;5085028;28;20067;-39
2023/04/19 10:40:07;;;;;;;3.28;1.73;;;;;;;20.97;40.70;102827.25;5081081;28;20045;-40
2023/04/19 10:43:13;;;;;;;2.72;1.77;;;;;;;20.99;40.59;102833.38;5082081;28;20047;-37
2023/04/19 10:45:40;;;;;;;4.53;2.25;;;;;;;21.04;40.72;102828.47;5076980;28;20080;-38
2023/04/19 10:48:31;;;;;;;2.17;1.83;;;;;;;21.06;40.73;102826.47;5076516;28;20063;-38
2023/04/19 10:51:20;;;;;;;1.98;1.50;;;;;;;21.11;40.38;102814.34;5077306;28;20127;-38
2023/04/19 10:53:47;;;;;;;3.28;1.98;;;;;;;21.14;40.31;102815.94;5082395;28;20336;-37
2023/04/19 10:56:15;;;;;;;3.72;1.67;;;;;;;21.16;40.46;102828.31;5076896;28;20067;-38
2023/04/19 10:59:00;;;;;;;2.22;1.77;;;;;;;21.20;40.52;102819.00;5077788;28;20072;-37
2023/04/19 11:01:41;;;;;;;2.20;1.80;;;;;;;21.24;40.41;102819.59;5079154;28;20095;-40
2023/04/19 11:04:36;;;;;;;2.58;1.67;;;;;;;21.30;40.43;102807.44;5079016;28;20048;-38
2023/04/19 11:07:06;;;;;;;2.33;1.65;;;;;;;21.33;40.17;102810.75;5065023;28;20044;-40
2023/04/19 11:09:38;;;;;;;2.42;1.73;;;;;;;21.36;39.99;102818.59;5079940;28;20055;-39
2023/04/19 11:12:07;;;;;;;2.55;1.65;;;;;;;21.39;40.31;102804.03;5081162;28;20044;-39
2023/04/19 11:14:38;;;;;;;1.73;1.48;;;;;;;21.41;40.05;102807.44;5078825;28;20064;-38
2023/04/19 11:17:16;;;;;;;2.38;1.60;;;;;;;21.44;40.15;102799.09;5083141;28;20066;-39
2023/04/19 11:20:08;;;;;;;2.50;1.60;;;;;;;21.47;39.56;102789.84;5082965;28;20051;-40
2023/04/19 11:22:40;;;;;;;2.03;1.40;;;;;;;21.51;39.90;102794.00;5081191;28;20343;-41
2023/04/19 11:25:11;;;;;;;2.45;1.75;;;;;;;21.53;39.65;102798.31;5085873;28;20159;-40
2023/04/19 11:27:40;;;;;;;2.42;1.65;;;;;;;21.57;39.66;102791.66;5081681;28;20052;-41
2023/04/19 11:30:09;;;;;;;3.47;1.75;;;;;;;21.60;39.71;102788.72;5082881;28;20079;-40
2023/04/19 11:32:36;;;;;;;1.80;1.50;;;;;;;21.63;39.69;102783.06;5085185;28;20056;-40